Pagina principale
METAR-TAF:

METAR-TAF

Aeroporti :

Geilenkirchen, Germania

latitudine: 50-57-39N, longitudine: 006-2-33E, altezza: 90 m

Osservazione

Il bollettino è stato emesso 50 minuti fa, alle 21:50 UTC
Vento 1 kt da sud/sud-est
Temperature 20°C
Umidità 73%
Pressione 1023 hPa
Visibilità 10 km o più
nessuna nube inferiore a 1500 m e nessun cumulonembo

METAR: ETNG 222150Z 16001KT CAVOK 20/15 Q1023

Ora: 00:40 (22:40 UTC)

Previsione

Il bollettino è stato emesso 2 ore e 40 minuti fa, alle 20:00 UTC
Previsione valida dal 22 alle 21 UTC al 23 alle 12 UTC
Vento 5 kt da est/sud-est
Visibilità 10 km o più
nessuna nube inferiore a 1500 m e nessun cumulonembo

TAF: ETNG 222000Z 2221/2312 11005KT CAVOK

Osservazioni e previsioni meteorologiche di più di 4000 aeroporti (messaggi METAR e TAF).

Le stazioni disponibili sono rappresentate dai dischi gialli e rossi sulla carta.

Puntare il mouse per vedere il nome della stazione.

Clicca sopra per visualizzare le osservazioni e previsioni meteorologiche.

Per cambiare la mappa : fare clic sui pulsanti verdi con una croce nera per ingrandire, il pulsante verde con un trattino per diminuire, o sulla freccia verde per le mappe adiacenti.


METAR-TAF: